createdAt,value
2019-06-10T00:01:21.358Z,16.40
2019-06-10T00:03:51.832Z,16.40
2019-06-10T00:06:21.747Z,16.40
2019-06-10T00:08:51.051Z,16.30
2019-06-10T00:11:21.335Z,16.20
2019-06-10T00:13:50.930Z,16.10
2019-06-10T00:16:20.807Z,16.10
2019-06-10T00:18:51.081Z,16.10
2019-06-10T00:21:21.810Z,16.10
2019-06-10T00:23:51.844Z,16.00
2019-06-10T00:26:21.721Z,15.90
2019-06-10T00:28:53.409Z,16.00
2019-06-10T00:31:22.713Z,15.90
2019-06-10T00:33:52.095Z,16.00
2019-06-10T00:36:21.677Z,15.90
2019-06-10T00:38:51.904Z,15.90
2019-06-10T00:41:22.146Z,15.90
2019-06-10T00:43:51.812Z,15.90
2019-06-10T00:46:21.387Z,15.80
2019-06-10T00:48:51.051Z,15.80
2019-06-10T00:51:20.942Z,15.70
2019-06-10T00:53:51.420Z,15.70
2019-06-10T00:56:21.556Z,15.70
2019-06-10T00:58:51.552Z,15.60
2019-06-10T01:01:21.905Z,15.60
2019-06-10T01:03:51.933Z,15.60
2019-06-10T01:06:21.552Z,15.40
2019-06-10T01:08:51.335Z,15.30
2019-06-10T01:11:26.654Z,15.30
2019-06-10T01:13:51.826Z,15.40
2019-06-10T01:16:21.789Z,15.40
2019-06-10T01:18:53.601Z,15.40
2019-06-10T01:21:22.498Z,15.50
2019-06-10T01:23:51.837Z,15.60
2019-06-10T01:26:21.812Z,15.60
2019-06-10T01:28:51.614Z,15.50
2019-06-10T01:31:24.255Z,15.50
2019-06-10T01:33:52.400Z,15.50
2019-06-10T01:36:22.041Z,15.50
2019-06-10T01:38:51.435Z,15.60
2019-06-10T01:41:21.357Z,15.50
2019-06-10T01:43:51.415Z,15.50
2019-06-10T01:46:21.379Z,15.50
2019-06-10T01:48:52.060Z,15.40
2019-06-10T01:51:21.702Z,15.40
2019-06-10T01:53:51.570Z,15.40
2019-06-10T01:56:21.540Z,15.30
2019-06-10T01:58:51.430Z,15.30
2019-06-10T02:01:34.524Z,15.40
2019-06-10T02:04:03.920Z,15.30
2019-06-10T02:06:33.227Z,15.30
2019-06-10T02:09:05.490Z,15.30
2019-06-10T02:11:36.620Z,15.30
2019-06-10T02:14:07.664Z,15.40
2019-06-10T02:16:36.968Z,15.30
2019-06-10T02:19:06.284Z,15.30
2019-06-10T02:21:35.603Z,15.30
2019-06-10T02:24:04.965Z,15.30
2019-06-10T02:26:34.260Z,15.30
2019-06-10T02:29:03.567Z,15.30
2019-06-10T02:31:37.576Z,15.20
2019-06-10T02:34:04.226Z,15.20
2019-06-10T02:36:36.794Z,15.20
2019-06-10T02:39:07.961Z,15.20
2019-06-10T02:41:38.900Z,15.10
2019-06-10T02:44:08.421Z,15.10
2019-06-10T02:46:37.716Z,15.10
2019-06-10T02:49:23.229Z,15.10
2019-06-10T02:51:38.223Z,15.10
2019-06-10T02:54:07.516Z,15.00
2019-06-10T02:56:37.106Z,14.90
2019-06-10T02:59:06.570Z,14.80
2019-06-10T03:01:38.013Z,14.80
2019-06-10T03:04:07.172Z,14.80
2019-06-10T03:06:40.295Z,14.80
2019-06-10T03:09:07.875Z,14.80
2019-06-10T03:11:37.729Z,14.80
2019-06-10T03:14:07.246Z,14.80
2019-06-10T03:16:38.187Z,14.80
2019-06-10T03:19:07.552Z,14.70
2019-06-10T03:21:36.845Z,14.70
2019-06-10T03:24:06.156Z,14.60
2019-06-10T03:26:35.456Z,14.60
2019-06-10T03:29:04.823Z,14.60
2019-06-10T03:31:41.550Z,14.50
2019-06-10T03:34:05.583Z,14.50
2019-06-10T03:36:35.441Z,14.40
2019-06-10T03:39:09.780Z,14.50
2019-06-10T03:41:39.082Z,14.50
2019-06-10T03:44:08.406Z,14.50
2019-06-10T03:46:37.687Z,14.50
2019-06-10T03:49:06.990Z,14.50
2019-06-10T03:51:36.571Z,14.50
2019-06-10T03:54:05.876Z,14.50
2019-06-10T03:56:35.169Z,14.50
2019-06-10T03:59:04.480Z,14.60
2019-06-10T04:01:34.081Z,14.50
2019-06-10T04:04:03.461Z,14.50
2019-06-10T04:06:33.613Z,14.40
2019-06-10T04:09:03.168Z,14.30
2019-06-10T04:11:35.466Z,14.30
2019-06-10T04:14:03.539Z,14.30
2019-06-10T04:16:32.936Z,14.40
2019-06-10T04:19:02.804Z,14.30
2019-06-10T04:21:32.757Z,14.30
2019-06-10T04:24:02.515Z,14.20
2019-06-10T04:26:32.726Z,14.20
2019-06-10T04:29:02.722Z,14.20
2019-06-10T04:31:33.050Z,14.30
2019-06-10T04:34:03.144Z,14.30
2019-06-10T04:36:33.287Z,14.30
2019-06-10T04:39:03.423Z,14.30
2019-06-10T04:41:32.927Z,14.30
2019-06-10T04:44:02.918Z,14.30
2019-06-10T04:46:32.712Z,14.30
2019-06-10T04:49:02.859Z,14.40
2019-06-10T04:51:32.839Z,14.40
2019-06-10T04:54:03.177Z,14.40
2019-06-10T04:56:33.411Z,14.30
2019-06-10T04:59:03.329Z,14.30
2019-06-10T05:01:33.570Z,14.40
2019-06-10T05:04:03.371Z,14.40
2019-06-10T05:06:33.010Z,14.50
2019-06-10T05:09:04.167Z,14.50
2019-06-10T05:11:33.358Z,14.50
2019-06-10T05:14:02.953Z,14.60
2019-06-10T05:16:35.846Z,14.70
2019-06-10T05:19:04.080Z,14.70
2019-06-10T05:21:33.822Z,14.90
2019-06-10T05:24:03.432Z,15.00
2019-06-10T05:26:34.376Z,15.00
2019-06-10T05:29:03.710Z,15.00
2019-06-10T05:31:35.117Z,14.90
2019-06-10T05:34:04.321Z,14.90
2019-06-10T05:36:34.760Z,15.00
2019-06-10T05:39:06.678Z,15.00
2019-06-10T05:41:35.999Z,15.10
2019-06-10T05:44:05.523Z,15.10
2019-06-10T05:46:35.156Z,15.10
2019-06-10T05:49:04.737Z,15.10
2019-06-10T05:51:35.398Z,15.10
2019-06-10T05:54:05.613Z,15.10
2019-06-10T05:56:35.700Z,15.20
2019-06-10T05:59:05.312Z,15.20
2019-06-10T06:01:38.006Z,15.30
2019-06-10T06:04:05.779Z,15.40
2019-06-10T06:06:35.466Z,15.50
2019-06-10T06:09:07.479Z,15.50
2019-06-10T06:11:37.808Z,15.60
2019-06-10T06:14:07.369Z,15.60
2019-06-10T06:16:38.160Z,15.70
2019-06-10T06:19:07.580Z,15.80
2019-06-10T06:21:42.945Z,15.90
2019-06-10T06:24:07.952Z,16.00
2019-06-10T06:26:38.345Z,16.00
2019-06-10T06:29:08.861Z,16.00
2019-06-10T06:31:38.255Z,16.00
2019-06-10T06:34:07.577Z,16.00
2019-06-10T06:36:38.314Z,16.00
2019-06-10T06:39:08.922Z,16.10
2019-06-10T06:41:39.145Z,16.10
2019-06-10T06:44:08.620Z,16.00
2019-06-10T06:46:39.607Z,16.00
2019-06-10T06:49:09.046Z,16.00
2019-06-10T06:51:51.835Z,16.00
2019-06-10T06:54:09.473Z,16.00
2019-06-10T06:56:39.330Z,16.10
2019-06-10T06:59:09.872Z,16.10
2019-06-10T07:01:40.583Z,16.20
2019-06-10T07:04:12.856Z,16.30
2019-06-10T07:06:43.346Z,16.30
2019-06-10T07:09:13.702Z,16.30
2019-06-10T07:11:46.528Z,16.40
2019-06-10T07:14:19.055Z,16.40
2019-06-10T07:16:48.384Z,16.50
2019-06-10T07:19:17.680Z,16.60
2019-06-10T07:22:07.446Z,16.70
2019-06-10T07:24:19.592Z,16.80
2019-06-10T07:26:52.096Z,16.80
2019-06-10T07:29:22.448Z,16.90
2019-06-10T07:31:53.502Z,16.90
2019-06-10T07:34:22.303Z,17.00
2019-06-10T07:36:52.403Z,17.00
2019-06-10T07:39:22.770Z,17.00
2019-06-10T07:41:53.043Z,17.20
2019-06-10T07:44:22.744Z,17.40
2019-06-10T07:46:52.978Z,17.50
2019-06-10T07:49:23.803Z,17.60
2019-06-10T07:51:53.987Z,17.70
2019-06-10T07:54:23.292Z,17.70
2019-06-10T07:56:53.690Z,17.90
2019-06-10T07:59:23.439Z,18.00
2019-06-10T08:01:55.151Z,17.90
2019-06-10T08:04:23.939Z,17.90
2019-06-10T08:06:53.641Z,18.00
2019-06-10T08:09:22.945Z,18.10
2019-06-10T08:11:53.197Z,18.20
2019-06-10T08:14:22.739Z,18.30
2019-06-10T08:16:53.162Z,18.20
2019-06-10T08:19:34.481Z,18.20
2019-06-10T08:21:54.971Z,18.40
2019-06-10T08:24:24.741Z,18.40
2019-06-10T08:26:54.058Z,18.50
2019-06-10T08:29:23.625Z,18.60
2019-06-10T08:31:53.376Z,18.60
2019-06-10T08:34:22.918Z,18.50
2019-06-10T08:36:54.500Z,18.60
2019-06-10T08:39:23.298Z,18.70
2019-06-10T08:41:52.926Z,18.80
2019-06-10T08:44:23.103Z,18.90
2019-06-10T08:46:52.627Z,19.10
2019-06-10T08:49:23.869Z,19.20
2019-06-10T08:51:53.573Z,19.20
2019-06-10T08:54:23.654Z,19.30
2019-06-10T08:56:53.995Z,19.20
2019-06-10T08:59:23.621Z,19.10
2019-06-10T09:01:56.765Z,19.30
2019-06-10T09:04:24.394Z,19.30
2019-06-10T09:06:56.771Z,19.40
2019-06-10T09:09:26.091Z,19.60
2019-06-10T09:11:55.444Z,19.80
2019-06-10T09:14:25.014Z,19.90
2019-06-10T09:16:54.611Z,19.80
2019-06-10T09:19:24.149Z,19.60
2019-06-10T09:21:56.361Z,19.60
2019-06-10T09:24:24.565Z,19.80
2019-06-10T09:26:54.902Z,19.80
2019-06-10T09:29:24.467Z,19.80
2019-06-10T09:31:55.809Z,19.90
2019-06-10T09:34:24.812Z,20.10
2019-06-10T09:36:56.836Z,20.20
2019-06-10T09:39:26.576Z,20.40
2019-06-10T09:42:02.262Z,20.30
2019-06-10T09:44:29.479Z,20.30
2019-06-10T09:47:03.494Z,20.30
2019-06-10T09:49:33.632Z,20.10
2019-06-10T09:52:03.655Z,20.00
2019-06-10T09:54:33.768Z,20.10
2019-06-10T09:57:03.452Z,20.20
2019-06-10T09:59:32.983Z,20.30
2019-06-10T10:02:06.032Z,20.50
2019-06-10T10:04:37.245Z,20.70
2019-06-10T10:07:04.638Z,20.70
2019-06-10T10:09:37.052Z,20.60
2019-06-10T10:12:05.643Z,20.70
2019-06-10T10:14:34.968Z,20.80
2019-06-10T10:17:04.904Z,20.70
2019-06-10T10:19:34.464Z,21.00
2019-06-10T10:22:04.171Z,21.10
2019-06-10T10:24:34.189Z,21.40
2019-06-10T10:27:08.368Z,21.50
2019-06-10T10:29:34.666Z,21.70
2019-06-10T10:32:04.342Z,21.60
2019-06-10T10:34:33.720Z,21.30
2019-06-10T10:37:03.045Z,21.40
2019-06-10T10:39:32.809Z,21.40
2019-06-10T10:42:03.346Z,21.30
2019-06-10T10:44:33.333Z,21.40
2019-06-10T10:47:03.770Z,21.50
2019-06-10T10:49:33.400Z,21.60
2019-06-10T10:52:03.056Z,21.60
2019-06-10T10:54:36.458Z,21.70
2019-06-10T10:57:03.459Z,21.70
2019-06-10T10:59:33.321Z,21.60
2019-06-10T11:02:02.771Z,21.60
2019-06-10T11:04:33.064Z,21.70
2019-06-10T11:07:02.448Z,21.80
2019-06-10T11:09:33.026Z,21.90
2019-06-10T11:12:03.646Z,21.90
2019-06-10T11:14:37.352Z,22.30
2019-06-10T11:17:06.663Z,22.60
2019-06-10T11:19:35.966Z,22.70
2019-06-10T11:22:05.573Z,22.80
2019-06-10T11:24:40.886Z,22.90
2019-06-10T11:27:06.059Z,22.80
2019-06-10T11:29:35.375Z,22.70
2019-06-10T11:32:04.890Z,22.60
2019-06-10T11:34:34.565Z,22.60
2019-06-10T11:37:05.718Z,22.70
2019-06-10T11:39:38.585Z,22.80
2019-06-10T11:42:06.988Z,23.00
2019-06-10T11:44:36.302Z,23.10
2019-06-10T11:47:05.916Z,23.30
2019-06-10T11:49:35.224Z,23.40
2019-06-10T11:52:04.537Z,23.50
2019-06-10T11:54:47.887Z,23.60
2019-06-10T11:57:04.950Z,23.80
2019-06-10T11:59:34.519Z,23.90
2019-06-10T12:02:06.062Z,24.00
2019-06-10T12:04:35.161Z,23.90
2019-06-10T12:07:04.469Z,23.80
2019-06-10T12:09:33.800Z,23.80
2019-06-10T12:12:03.120Z,23.80
2019-06-10T12:14:33.739Z,23.60
2019-06-10T12:17:27.535Z,23.80
2019-06-10T12:19:36.509Z,23.80
2019-06-10T12:22:07.582Z,23.80
2019-06-10T12:24:36.863Z,23.70
2019-06-10T12:27:06.188Z,23.80
2019-06-10T12:29:35.517Z,23.90
2019-06-10T12:32:07.349Z,23.90
2019-06-10T12:34:35.859Z,24.00
2019-06-10T12:37:11.151Z,24.10
2019-06-10T12:39:36.276Z,24.30
2019-06-10T12:42:06.564Z,24.70
2019-06-10T12:44:36.262Z,24.90
2019-06-10T12:47:07.867Z,25.00
2019-06-10T12:49:36.623Z,25.00
2019-06-10T12:52:07.607Z,25.30
2019-06-10T12:54:37.348Z,25.40
2019-06-10T12:57:07.124Z,25.70
2019-06-10T12:59:36.651Z,26.00
2019-06-10T13:02:17.769Z,26.20
2019-06-10T13:04:38.368Z,26.30
2019-06-10T13:07:09.043Z,26.50
2019-06-10T13:09:40.136Z,26.70
2019-06-10T13:12:09.449Z,26.50
2019-06-10T13:14:42.875Z,26.20
2019-06-10T13:17:13.001Z,26.00
2019-06-10T13:19:43.229Z,25.70
2019-06-10T13:22:12.920Z,25.80
2019-06-10T13:24:42.535Z,25.70
2019-06-10T13:27:12.089Z,25.90
2019-06-10T13:29:43.050Z,26.30
2019-06-10T13:32:14.482Z,26.50
2019-06-10T13:34:43.787Z,26.20
2019-06-10T13:37:16.178Z,26.20
2019-06-10T13:39:44.427Z,26.00
2019-06-10T13:42:14.564Z,25.80
2019-06-10T13:44:44.034Z,25.60
2019-06-10T13:47:14.912Z,25.30
2019-06-10T13:49:44.456Z,25.10
2019-06-10T13:52:16.681Z,24.90
2019-06-10T13:54:45.336Z,24.70
2019-06-10T13:57:15.666Z,24.60
2019-06-10T13:59:46.298Z,24.60
2019-06-10T14:02:16.176Z,24.60
2019-06-10T14:04:45.807Z,24.50
2019-06-10T14:07:17.444Z,24.40
2019-06-10T14:09:46.450Z,24.30
2019-06-10T14:12:17.587Z,24.20
2019-06-10T14:14:47.247Z,24.10
2019-06-10T14:17:19.384Z,24.00
2019-06-10T14:19:47.678Z,24.00
2019-06-10T14:22:16.974Z,23.90
2019-06-10T14:24:46.274Z,24.00
2019-06-10T14:27:20.547Z,23.90
2019-06-10T14:29:46.598Z,23.90
2019-06-10T14:32:15.907Z,23.90
2019-06-10T14:34:45.206Z,23.90
2019-06-10T14:37:15.682Z,24.00
2019-06-10T14:39:45.556Z,23.90
2019-06-10T14:42:16.223Z,23.90
2019-06-10T14:44:45.935Z,23.80
2019-06-10T14:47:16.759Z,23.80
2019-06-10T14:49:46.142Z,23.70
2019-06-10T14:52:16.950Z,23.70
2019-06-10T14:54:46.523Z,23.70
2019-06-10T14:57:16.858Z,23.60
2019-06-10T14:59:46.329Z,23.60
2019-06-10T15:02:17.506Z,23.50
2019-06-10T15:04:47.427Z,23.50
2019-06-10T15:07:17.042Z,23.50
2019-06-10T15:09:46.352Z,23.50
2019-06-10T15:12:17.382Z,23.50
2019-06-10T15:14:46.765Z,23.40
2019-06-10T15:17:16.838Z,23.40
2019-06-10T15:19:46.273Z,23.30
2019-06-10T15:22:34.919Z,23.30
2019-06-10T15:25:05.281Z,23.20
2019-06-10T15:27:34.662Z,23.10
2019-06-10T15:30:15.393Z,23.00
2019-06-10T15:32:42.306Z,23.00
2019-06-10T15:35:13.128Z,22.80
2019-06-10T15:37:43.024Z,22.20
2019-06-10T15:40:14.046Z,21.70
2019-06-10T15:42:44.713Z,21.60
2019-06-10T15:45:17.982Z,21.40
2019-06-10T15:47:47.418Z,21.10
2019-06-10T15:50:18.881Z,20.10
2019-06-10T15:52:48.212Z,18.90
2019-06-10T15:55:37.800Z,18.40
2019-06-10T15:57:48.670Z,18.10
2019-06-10T16:00:22.317Z,18.10
2019-06-10T16:02:49.873Z,17.90
2019-06-10T16:05:20.611Z,17.90
2019-06-10T16:07:52.850Z,18.00
2019-06-10T16:10:27.357Z,18.10
2019-06-10T16:12:52.939Z,18.20
2019-06-10T16:15:26.096Z,18.20
2019-06-10T16:17:53.742Z,18.40
2019-06-10T16:20:23.571Z,18.40
2019-06-10T16:22:53.859Z,18.60
2019-06-10T16:25:26.308Z,18.70
2019-06-10T16:27:54.665Z,18.70
2019-06-10T16:30:25.917Z,18.70
2019-06-10T16:32:55.211Z,18.80
2019-06-10T16:35:26.761Z,18.80
2019-06-10T16:37:56.810Z,18.80
2019-06-10T16:40:27.227Z,18.70
2019-06-10T16:42:56.742Z,18.80
2019-06-10T16:45:30.839Z,18.70
2019-06-10T16:47:58.699Z,18.60
2019-06-10T16:50:28.101Z,18.50
2019-06-10T16:52:57.472Z,18.30
2019-06-10T16:55:27.241Z,18.30
2019-06-10T16:57:59.677Z,18.40
2019-06-10T17:00:28.188Z,18.60
2019-06-10T17:02:57.507Z,18.70
2019-06-10T17:05:28.631Z,18.70
2019-06-10T17:07:57.896Z,18.90
2019-06-10T17:10:29.489Z,18.80
2019-06-10T17:13:03.458Z,18.70
2019-06-10T17:15:32.784Z,18.60
2019-06-10T17:18:02.937Z,18.50
2019-06-10T17:20:34.150Z,18.50
2019-06-10T17:23:26.353Z,18.40
2019-06-10T17:25:57.039Z,18.30
2019-06-10T17:28:31.797Z,18.40
2019-06-10T17:30:59.354Z,18.40
2019-06-10T17:33:30.505Z,18.30
2019-06-10T17:35:59.765Z,18.30
2019-06-10T17:38:33.388Z,18.30
2019-06-10T17:41:04.370Z,18.30
2019-06-10T17:43:34.404Z,18.20
2019-06-10T17:46:03.935Z,18.20
2019-06-10T17:48:33.844Z,18.30
2019-06-10T17:51:03.465Z,18.40
2019-06-10T17:53:34.971Z,18.30
2019-06-10T17:56:04.206Z,18.30
2019-06-10T17:58:50.097Z,18.40
2019-06-10T18:01:05.206Z,18.30
2019-06-10T18:03:35.805Z,18.30
2019-06-10T18:06:05.601Z,18.40
2019-06-10T18:08:36.382Z,18.50
2019-06-10T18:11:05.952Z,18.50
2019-06-10T18:13:36.077Z,18.40
2019-06-10T18:16:05.747Z,18.40
2019-06-10T18:18:37.056Z,18.40
2019-06-10T18:21:06.041Z,18.30
2019-06-10T18:23:35.337Z,18.40
2019-06-10T18:26:04.787Z,18.40
2019-06-10T18:28:53.719Z,18.30
2019-06-10T18:31:05.174Z,18.30
2019-06-10T18:33:36.347Z,18.30
2019-06-10T18:36:05.516Z,18.20
2019-06-10T18:38:37.121Z,18.30
2019-06-10T18:41:05.865Z,18.20
2019-06-10T18:43:35.715Z,18.10
2019-06-10T18:46:06.545Z,18.10
2019-06-10T18:48:37.969Z,18.10
2019-06-10T18:51:06.876Z,18.20
2019-06-10T18:53:36.490Z,18.20
2019-06-10T18:56:05.768Z,18.00
2019-06-10T18:58:36.245Z,17.80
2019-06-10T19:01:07.944Z,17.80
2019-06-10T19:03:38.268Z,17.60
2019-06-10T19:06:08.376Z,17.60
2019-06-10T19:08:39.312Z,17.50
2019-06-10T19:11:09.127Z,17.60
2019-06-10T19:13:40.140Z,17.50
2019-06-10T19:16:09.801Z,17.60
2019-06-10T19:18:40.869Z,17.50
2019-06-10T19:21:12.549Z,17.50
2019-06-10T19:23:43.545Z,17.50
2019-06-10T19:26:13.399Z,17.50
2019-06-10T19:28:45.029Z,17.50
2019-06-10T19:31:14.098Z,17.50
2019-06-10T19:33:45.133Z,17.60
2019-06-10T19:36:14.467Z,17.60
2019-06-10T19:38:44.361Z,17.50
2019-06-10T19:41:14.077Z,17.40
2019-06-10T19:43:45.291Z,17.40
2019-06-10T19:46:14.425Z,17.30
2019-06-10T19:48:55.467Z,17.20
2019-06-10T19:51:14.774Z,17.20
2019-06-10T19:53:45.166Z,17.20
2019-06-10T19:56:14.796Z,17.30
2019-06-10T19:58:46.228Z,17.30
2019-06-10T20:01:15.206Z,17.20
2019-06-10T20:03:46.470Z,17.20
2019-06-10T20:06:15.612Z,17.10
2019-06-10T20:08:46.230Z,17.00
2019-06-10T20:11:15.887Z,17.00
2019-06-10T20:13:46.862Z,17.00
2019-06-10T20:16:16.712Z,16.90
2019-06-10T20:18:48.236Z,17.00
2019-06-10T20:21:17.064Z,16.90
2019-06-10T20:23:47.732Z,16.80
2019-06-10T20:26:17.157Z,16.70
2019-06-10T20:28:52.094Z,16.70
2019-06-10T20:31:17.512Z,16.80
2019-06-10T20:33:47.082Z,16.70
2019-06-10T20:36:22.424Z,16.70
2019-06-10T20:38:48.935Z,16.60
2019-06-10T20:41:18.777Z,16.70
2019-06-10T20:43:49.533Z,16.60
2019-06-10T20:46:18.951Z,16.50
2019-06-10T20:48:50.895Z,16.40
2019-06-10T20:51:19.294Z,16.50
2019-06-10T20:53:49.147Z,16.50
2019-06-10T20:56:20.373Z,16.50
2019-06-10T20:58:50.285Z,16.40
2019-06-10T21:01:25.392Z,16.50
2019-06-10T21:03:54.194Z,16.60
2019-06-10T21:06:24.613Z,16.50
2019-06-10T21:08:55.626Z,16.50
2019-06-10T21:11:24.943Z,16.70
2019-06-10T21:13:55.659Z,16.70
2019-06-10T21:16:25.292Z,16.70
2019-06-10T21:18:55.427Z,16.70
2019-06-10T21:21:25.125Z,16.70
2019-06-10T21:23:54.407Z,16.70
2019-06-10T21:26:23.956Z,16.80
2019-06-10T21:28:55.198Z,16.80
2019-06-10T21:31:24.821Z,16.80
2019-06-10T21:33:55.612Z,16.80
2019-06-10T21:36:25.151Z,16.70
2019-06-10T21:38:55.750Z,16.70
2019-06-10T21:41:25.360Z,16.70
2019-06-10T21:43:59.276Z,16.70
2019-06-10T21:46:25.826Z,16.60
2019-06-10T21:48:55.876Z,16.50
2019-06-10T21:51:25.621Z,16.50
2019-06-10T21:53:55.322Z,16.50
2019-06-10T21:56:25.104Z,16.50
2019-06-10T21:58:55.667Z,16.50
2019-06-10T22:01:25.315Z,16.30
2019-06-10T22:04:00.659Z,16.50
2019-06-10T22:06:25.723Z,16.40
2019-06-10T22:08:56.620Z,16.40
2019-06-10T22:11:26.193Z,16.40
2019-06-10T22:13:56.314Z,16.50
2019-06-10T22:16:26.370Z,16.40
2019-06-10T22:18:55.669Z,16.40
2019-06-10T22:21:24.990Z,16.30
2019-06-10T22:23:56.933Z,16.30
2019-06-10T22:26:25.332Z,16.30
2019-06-10T22:28:57.312Z,16.30
2019-06-10T22:31:26.390Z,16.30
2019-06-10T22:33:57.601Z,16.40
2019-06-10T22:36:27.147Z,16.50
2019-06-10T22:38:59.010Z,16.50
2019-06-10T22:41:27.474Z,16.60
2019-06-10T22:43:57.555Z,16.60
2019-06-10T22:46:27.178Z,16.50
2019-06-10T22:48:57.429Z,16.50
2019-06-10T22:51:27.120Z,16.50
2019-06-10T22:53:58.423Z,16.50
2019-06-10T22:56:27.765Z,16.40
2019-06-10T22:58:57.426Z,16.40
2019-06-10T23:01:34.339Z,16.40
2019-06-10T23:03:57.993Z,16.40
2019-06-10T23:06:27.296Z,16.50
2019-06-10T23:08:58.147Z,16.40
2019-06-10T23:11:27.975Z,16.40
2019-06-10T23:13:58.429Z,16.50
2019-06-10T23:16:28.314Z,16.50
2019-06-10T23:18:58.368Z,16.40
2019-06-10T23:21:28.672Z,16.50
2019-06-10T23:23:58.567Z,16.50
2019-06-10T23:26:27.955Z,16.50
2019-06-10T23:28:58.834Z,16.50
2019-06-10T23:31:28.651Z,16.40
2019-06-10T23:33:58.042Z,16.30
2019-06-10T23:36:27.330Z,16.30
2019-06-10T23:38:57.102Z,16.30
2019-06-10T23:41:26.420Z,16.30
2019-06-10T23:43:55.737Z,16.30
2019-06-10T23:46:26.313Z,16.20
2019-06-10T23:48:55.614Z,16.10
2019-06-10T23:51:24.919Z,16.10
2019-06-10T23:53:57.304Z,16.00
2019-06-10T23:56:25.328Z,15.90
2019-06-10T23:58:55.985Z,15.80
